createdAt,value
2023-04-14T00:01:15.642Z,3.47
2023-04-14T00:03:43.249Z,3.03
2023-04-14T00:06:10.790Z,3.55
2023-04-14T00:08:38.279Z,3.70
2023-04-14T00:11:06.125Z,3.22
2023-04-14T00:13:33.609Z,4.18
2023-04-14T00:16:02.462Z,4.35
2023-04-14T00:18:30.149Z,3.75
2023-04-14T00:20:57.679Z,4.18
2023-04-14T00:23:25.170Z,3.25
2023-04-14T00:25:52.840Z,3.75
2023-04-14T00:28:21.089Z,3.67
2023-04-14T00:30:48.633Z,3.95
2023-04-14T00:33:17.456Z,4.70
2023-04-14T00:35:44.984Z,3.45
2023-04-14T00:38:12.445Z,3.47
2023-04-14T00:40:40.480Z,4.28
2023-04-14T00:43:07.999Z,4.72
2023-04-14T00:45:38.825Z,4.25
2023-04-14T00:48:06.691Z,3.80
2023-04-14T00:50:35.624Z,5.20
2023-04-14T00:53:03.177Z,4.85
2023-04-14T00:55:31.071Z,3.92
2023-04-14T00:57:58.579Z,4.65
2023-04-14T01:00:26.228Z,4.97
2023-04-14T01:02:54.635Z,3.88
2023-04-14T01:05:22.244Z,4.90
2023-04-14T01:07:51.224Z,5.32
2023-04-14T01:10:18.751Z,4.70
2023-04-14T01:12:57.759Z,4.50
2023-04-14T01:15:29.407Z,5.07
2023-04-14T01:17:59.900Z,4.55
2023-04-14T01:20:31.187Z,4.82
2023-04-14T01:23:05.669Z,5.00
2023-04-14T01:25:43.636Z,4.90
2023-04-14T01:28:15.382Z,6.13
2023-04-14T01:30:55.803Z,4.95
2023-04-14T01:33:27.287Z,4.82
2023-04-14T01:35:56.468Z,4.70
2023-04-14T01:38:26.343Z,5.03
2023-04-14T01:40:55.083Z,5.07
2023-04-14T01:43:26.294Z,5.13
2023-04-14T01:45:56.618Z,5.63
2023-04-14T01:48:26.047Z,4.88
2023-04-14T01:50:54.467Z,5.68
2023-04-14T01:53:22.530Z,5.15
2023-04-14T01:55:50.539Z,4.97
2023-04-14T01:58:18.901Z,5.95
2023-04-14T02:00:46.887Z,5.07
2023-04-14T02:03:14.775Z,5.82
2023-04-14T02:05:43.832Z,4.97
2023-04-14T02:08:12.561Z,5.28
2023-04-14T02:10:41.674Z,5.32
2023-04-14T02:13:10.657Z,5.50
2023-04-14T02:15:38.307Z,6.13
2023-04-14T02:18:06.829Z,5.20
2023-04-14T02:20:34.685Z,5.82
2023-04-14T02:23:03.928Z,5.45
2023-04-14T02:25:33.309Z,4.90
2023-04-14T02:28:03.773Z,5.32
2023-04-14T02:30:32.666Z,5.72
2023-04-14T02:33:02.963Z,5.70
2023-04-14T02:35:31.589Z,6.30
2023-04-14T02:38:04.754Z,6.07
2023-04-14T02:40:37.297Z,6.60
2023-04-14T02:43:06.436Z,6.38
2023-04-14T02:45:34.817Z,6.60
2023-04-14T02:48:04.187Z,5.95
2023-04-14T02:50:32.778Z,6.32
2023-04-14T02:53:01.470Z,7.20
2023-04-14T02:55:29.922Z,6.88
2023-04-14T02:57:59.557Z,6.38
2023-04-14T03:00:27.329Z,6.30
2023-04-14T03:02:56.045Z,6.55
2023-04-14T03:05:24.709Z,6.28
2023-04-14T03:07:53.211Z,7.75
2023-04-14T03:10:21.157Z,6.75
2023-04-14T03:12:49.104Z,6.97
2023-04-14T03:15:18.194Z,6.25
2023-04-14T03:17:48.283Z,6.80
2023-04-14T03:20:20.090Z,8.07
2023-04-14T03:22:48.409Z,7.30
2023-04-14T03:25:15.957Z,6.80
2023-04-14T03:27:45.276Z,7.07
2023-04-14T03:30:14.384Z,7.47
2023-04-14T03:32:44.497Z,7.32
2023-04-14T03:35:15.044Z,7.30
2023-04-14T03:37:43.230Z,8.88
2023-04-14T03:40:11.295Z,7.18
2023-04-14T03:42:39.672Z,7.70
2023-04-14T03:45:07.828Z,8.27
2023-04-14T03:47:35.905Z,8.10
2023-04-14T03:50:06.052Z,8.10
2023-04-14T03:52:35.397Z,7.30
2023-04-14T03:55:06.457Z,8.02
2023-04-14T03:57:34.218Z,8.10
2023-04-14T04:00:02.495Z,7.57
2023-04-14T04:02:31.366Z,7.88
2023-04-14T04:05:00.027Z,7.80
2023-04-14T04:07:30.048Z,8.43
2023-04-14T04:10:00.390Z,9.18
2023-04-14T04:12:31.081Z,8.57
2023-04-14T04:14:58.640Z,8.25
2023-04-14T04:17:27.282Z,8.45
2023-04-14T04:19:55.784Z,8.32
2023-04-14T04:22:24.628Z,9.38
2023-04-14T04:24:54.316Z,8.57
2023-04-14T04:27:28.200Z,8.85
2023-04-14T04:32:23.930Z,8.80
2023-04-14T04:34:51.992Z,8.50
2023-04-14T04:37:19.875Z,9.48
2023-04-14T04:39:48.681Z,8.93
2023-04-14T04:42:17.600Z,9.52
2023-04-14T04:44:45.075Z,9.60
2023-04-14T04:47:13.960Z,9.38
2023-04-14T04:49:41.475Z,9.15
2023-04-14T04:52:09.014Z,8.73
2023-04-14T04:54:36.707Z,9.45
2023-04-14T04:57:04.444Z,9.63
2023-04-14T04:59:35.062Z,11.98
2023-04-14T05:02:04.271Z,9.77
2023-04-14T05:04:32.056Z,9.90
2023-04-14T05:06:59.678Z,10.45
2023-04-14T05:09:27.595Z,8.82
2023-04-14T05:11:55.094Z,8.88
2023-04-14T05:14:22.782Z,8.50
2023-04-14T05:16:51.686Z,9.20
2023-04-14T05:19:19.271Z,8.90
2023-04-14T05:21:46.858Z,9.48
2023-04-14T05:24:14.550Z,10.65
2023-04-14T05:27:01.526Z,10.68
2023-04-14T05:29:32.369Z,9.05
2023-04-14T05:32:01.296Z,9.15
2023-04-14T05:34:28.825Z,10.23
2023-04-14T05:36:56.552Z,9.88
2023-04-14T05:39:24.549Z,9.43
2023-04-14T05:41:52.523Z,10.32
2023-04-14T05:44:20.303Z,10.18
2023-04-14T05:46:48.065Z,8.45
2023-04-14T05:49:17.085Z,8.45
2023-04-14T05:51:44.850Z,10.10
2023-04-14T05:54:12.363Z,8.75
2023-04-14T05:56:43.710Z,8.55
2023-04-14T05:59:11.434Z,8.68
2023-04-14T06:01:39.073Z,9.35
2023-04-14T06:04:07.325Z,9.18
2023-04-14T06:06:36.606Z,9.07
2023-04-14T06:09:04.284Z,9.10
2023-04-14T06:11:31.990Z,9.23
2023-04-14T06:14:01.949Z,9.20
2023-04-14T06:16:29.752Z,8.45
2023-04-14T06:18:57.298Z,9.57
2023-04-14T06:21:26.816Z,11.35
2023-04-14T06:23:55.658Z,9.52
2023-04-14T06:26:23.322Z,8.90
2023-04-14T06:28:50.944Z,9.23
2023-04-14T06:31:18.751Z,8.68
2023-04-14T06:33:46.537Z,8.93
2023-04-14T06:36:17.039Z,9.20
2023-04-14T06:38:44.690Z,9.80
2023-04-14T06:41:13.532Z,8.98
2023-04-14T06:43:42.841Z,9.50
2023-04-14T06:46:10.509Z,9.30
2023-04-14T06:48:38.046Z,9.15
2023-04-14T06:51:05.870Z,9.95
2023-04-14T06:53:33.370Z,10.05
2023-04-14T06:56:01.509Z,8.23
2023-04-14T06:58:30.628Z,9.23
2023-04-14T07:00:58.334Z,9.23
2023-04-14T07:03:26.214Z,10.05
2023-04-14T07:05:54.120Z,9.40
2023-04-14T07:08:22.012Z,10.48
2023-04-14T07:10:50.620Z,9.35
2023-04-14T07:13:18.155Z,9.40
2023-04-14T07:15:48.473Z,9.57
2023-04-14T07:18:16.058Z,8.75
2023-04-14T07:20:43.626Z,9.93
2023-04-14T07:23:11.375Z,9.40
2023-04-14T07:25:38.944Z,9.07
2023-04-14T07:28:08.793Z,9.90
2023-04-14T07:30:36.916Z,10.18
2023-04-14T07:33:05.924Z,8.93
2023-04-14T07:35:34.313Z,9.77
2023-04-14T07:38:01.874Z,9.40
2023-04-14T07:40:29.380Z,8.23
2023-04-14T07:42:58.066Z,9.65
2023-04-14T07:45:25.548Z,9.27
2023-04-14T07:47:54.283Z,9.27
2023-04-14T08:10:23.197Z,10.50
2023-04-14T08:12:50.790Z,11.73
2023-04-14T08:15:18.678Z,10.40
2023-04-14T08:17:46.372Z,10.02
2023-04-14T08:20:14.069Z,9.90
2023-04-14T08:22:43.250Z,10.68
2023-04-14T08:25:12.168Z,8.77
2023-04-14T08:27:41.902Z,8.68
2023-04-14T08:30:11.562Z,9.55
2023-04-14T08:32:39.356Z,9.48
2023-04-14T08:35:35.345Z,9.75
2023-04-14T08:37:55.045Z,9.02
2023-04-14T08:40:23.311Z,9.27
2023-04-14T08:42:52.281Z,8.98
2023-04-14T08:45:20.368Z,7.95
2023-04-14T08:47:49.302Z,8.45
2023-04-14T08:50:18.163Z,8.23
2023-04-14T08:52:47.152Z,8.85
2023-04-14T08:55:15.628Z,8.23
2023-04-14T08:57:44.773Z,8.88
2023-04-14T09:00:20.804Z,8.15
2023-04-14T09:02:48.527Z,8.45
2023-04-14T09:05:16.843Z,7.90
2023-04-14T09:07:45.082Z,7.97
2023-04-14T09:10:13.068Z,9.13
2023-04-14T09:12:42.010Z,8.60
2023-04-14T09:15:10.431Z,9.60
2023-04-14T09:17:39.450Z,7.57
2023-04-14T09:20:38.579Z,8.20
2023-04-14T09:22:57.581Z,7.78
2023-04-14T09:25:25.251Z,7.57
2023-04-14T09:27:53.481Z,8.15
2023-04-14T09:30:21.501Z,8.07
2023-04-14T09:32:53.845Z,8.43
2023-04-14T09:35:21.736Z,7.95
2023-04-14T09:37:49.751Z,7.55
2023-04-14T09:40:28.634Z,6.97
2023-04-14T09:42:57.395Z,6.63
2023-04-14T09:45:40.985Z,7.45
2023-04-14T09:48:13.060Z,8.13
2023-04-14T09:51:00.452Z,7.07
2023-04-14T09:53:28.946Z,7.80
2023-04-14T09:55:59.778Z,7.55
2023-04-14T09:58:31.112Z,7.57
2023-04-14T10:01:02.490Z,9.90
2023-04-14T10:03:36.713Z,7.45
2023-04-14T10:06:07.435Z,8.27
2023-04-14T10:08:36.381Z,7.63
2023-04-14T10:11:21.431Z,7.70
2023-04-14T10:13:49.590Z,6.97
2023-04-14T10:16:17.810Z,6.85
2023-04-14T10:18:47.307Z,7.50
2023-04-14T10:21:15.685Z,7.75
2023-04-14T10:23:43.767Z,7.65
2023-04-14T10:26:12.075Z,7.22
2023-04-14T10:28:50.967Z,7.47
2023-04-14T10:31:23.267Z,7.68
2023-04-14T10:33:52.574Z,7.38
2023-04-14T10:36:26.782Z,8.80
2023-04-14T10:39:00.090Z,7.25
2023-04-14T10:41:28.362Z,7.93
2023-04-14T10:43:56.630Z,7.15
2023-04-14T10:46:24.680Z,7.38
2023-04-14T10:48:54.323Z,6.63
2023-04-14T10:51:22.528Z,7.15
2023-04-14T10:53:54.434Z,6.57
2023-04-14T10:56:24.105Z,6.30
2023-04-14T10:58:55.188Z,6.50
2023-04-14T11:01:27.255Z,8.18
2023-04-14T11:03:56.969Z,6.80
2023-04-14T11:06:40.876Z,6.15
2023-04-14T11:09:22.893Z,6.30
2023-04-14T11:11:50.522Z,6.30
2023-04-14T11:14:18.046Z,6.35
2023-04-14T11:16:54.190Z,5.88
2023-04-14T11:19:33.288Z,6.32
2023-04-14T11:22:01.225Z,6.55
2023-04-14T11:24:29.492Z,7.13
2023-04-14T11:26:57.936Z,6.47
2023-04-14T11:29:25.473Z,6.45
2023-04-14T11:32:02.905Z,6.35
2023-04-14T11:34:34.339Z,6.28
2023-04-14T11:37:08.184Z,6.40
2023-04-14T11:39:36.718Z,5.75
2023-04-14T11:42:05.575Z,5.55
2023-04-14T11:44:33.849Z,6.30
2023-04-14T11:47:01.542Z,5.15
2023-04-14T11:49:38.003Z,5.60
2023-04-14T11:52:07.345Z,5.90
2023-04-14T11:54:38.377Z,5.93
2023-04-14T11:57:10.249Z,5.45
2023-04-14T11:59:42.393Z,6.00
2023-04-14T12:02:18.879Z,6.05
2023-04-14T12:04:51.773Z,5.22
2023-04-14T12:07:20.303Z,5.28
2023-04-14T12:09:50.105Z,5.32
2023-04-14T12:12:18.897Z,6.55
2023-04-14T12:14:46.984Z,6.57
2023-04-14T12:17:15.456Z,6.60
2023-04-14T12:19:43.466Z,5.90
2023-04-14T12:22:12.445Z,5.88
2023-04-14T12:24:40.470Z,6.13
2023-04-14T12:27:10.105Z,6.85
2023-04-14T12:29:38.408Z,6.35
2023-04-14T12:32:11.356Z,6.32
2023-04-14T12:34:38.981Z,6.10
2023-04-14T12:37:10.342Z,6.40
2023-04-14T12:39:52.830Z,5.75
2023-04-14T12:42:21.089Z,6.43
2023-04-14T12:45:12.570Z,6.30
2023-04-14T12:47:40.772Z,6.15
2023-04-14T12:50:35.975Z,7.07
2023-04-14T12:53:03.899Z,6.50
2023-04-14T12:55:40.651Z,6.57
2023-04-14T12:58:15.824Z,5.70
2023-04-14T13:00:51.327Z,6.82
2023-04-14T13:03:27.977Z,6.07
2023-04-14T13:05:59.435Z,6.80
2023-04-14T13:08:35.780Z,6.45
2023-04-14T13:11:34.011Z,7.35
2023-04-14T13:14:34.338Z,5.97
2023-04-14T13:17:02.332Z,6.78
2023-04-14T13:19:30.182Z,5.60
2023-04-14T13:24:59.516Z,5.25
2023-04-14T13:27:27.459Z,5.75
2023-04-14T13:30:02.470Z,5.72
2023-04-14T13:32:31.933Z,6.05
2023-04-14T13:34:59.770Z,5.32
2023-04-14T13:37:35.177Z,6.15
2023-04-14T13:40:03.617Z,5.93
2023-04-14T13:42:31.463Z,5.38
2023-04-14T13:59:42.885Z,5.63
2023-04-14T14:02:35.412Z,5.40
2023-04-14T14:05:37.995Z,6.22
2023-04-14T14:17:56.267Z,5.68
2023-04-14T14:20:26.224Z,5.93
2023-04-14T14:22:59.742Z,5.55
2023-04-14T14:25:32.248Z,5.18
2023-04-14T14:28:08.059Z,5.65
2023-04-14T14:30:40.892Z,5.97
2023-04-14T14:33:09.255Z,5.20
2023-04-14T14:38:22.229Z,5.38
2023-04-14T14:40:54.152Z,5.40
2023-04-14T14:43:25.858Z,5.68
2023-04-14T14:47:06.791Z,5.50
2023-04-14T14:53:24.831Z,5.38
2023-04-14T15:00:04.442Z,4.60
2023-04-14T15:47:35.758Z,5.60
2023-04-14T16:02:28.101Z,5.50
2023-04-14T16:08:03.844Z,6.43
2023-04-14T16:17:15.284Z,5.88
2023-04-14T16:20:02.866Z,6.45
2023-04-14T16:22:38.911Z,5.50
2023-04-14T16:35:58.957Z,4.97
2023-04-14T16:53:18.128Z,5.32
2023-04-14T16:55:48.604Z,5.30
2023-04-14T17:12:02.726Z,4.80
2023-04-14T17:14:38.085Z,4.90
2023-04-14T17:17:15.548Z,5.25
2023-04-14T17:19:47.504Z,4.60
2023-04-14T17:22:15.899Z,3.72
2023-04-14T17:28:39.829Z,4.53
2023-04-14T17:31:19.017Z,4.03
2023-04-14T17:33:47.753Z,4.95
2023-04-14T17:36:54.227Z,4.88
2023-04-14T17:39:39.362Z,4.72
2023-04-14T17:49:08.522Z,4.60
2023-04-14T17:51:54.254Z,5.47
2023-04-14T17:54:25.211Z,4.50
2023-04-14T17:57:00.967Z,4.75
2023-04-14T17:59:29.313Z,5.82
2023-04-14T18:02:09.446Z,5.03
2023-04-14T18:04:43.100Z,4.97
2023-04-14T18:07:14.415Z,5.32
2023-04-14T18:16:12.093Z,6.05
2023-04-14T18:18:57.322Z,4.50
2023-04-14T18:21:46.169Z,4.95
2023-04-14T18:30:42.115Z,4.82
2023-04-14T18:33:11.212Z,6.07
2023-04-14T18:36:02.686Z,5.03
2023-04-14T18:38:30.415Z,5.72
2023-04-14T18:41:06.272Z,5.45
2023-04-14T18:43:37.044Z,5.53
2023-04-14T18:46:06.675Z,4.82
2023-04-14T18:48:34.525Z,5.30
2023-04-14T18:51:08.140Z,5.30
2023-04-14T18:53:36.268Z,5.60
2023-04-14T18:56:05.451Z,5.13
2023-04-14T18:58:35.926Z,5.68
2023-04-14T19:01:12.487Z,5.07
2023-04-14T19:03:49.085Z,5.47
2023-04-14T19:06:19.696Z,5.90
2023-04-14T19:08:47.396Z,5.22
2023-04-14T19:11:16.475Z,5.53
2023-04-14T19:13:44.005Z,5.15
2023-04-14T19:16:12.708Z,5.43
2023-04-14T19:18:41.096Z,5.22
2023-04-14T19:21:09.232Z,5.90
2023-04-14T19:23:37.368Z,5.90
2023-04-14T19:26:06.460Z,6.78
2023-04-14T19:28:38.685Z,5.45
2023-04-14T19:31:06.391Z,4.88
2023-04-14T19:33:34.723Z,5.38
2023-04-14T19:36:02.826Z,4.65
2023-04-14T19:38:30.751Z,5.63
2023-04-14T19:40:59.111Z,5.75
2023-04-14T19:43:26.822Z,5.32
2023-04-14T19:45:57.844Z,4.95
2023-04-14T19:48:25.751Z,4.70
2023-04-14T19:50:59.475Z,5.10
2023-04-14T19:53:28.228Z,5.78
2023-04-14T19:56:00.043Z,4.85
2023-04-14T19:58:28.655Z,4.65
2023-04-14T20:00:59.053Z,4.32
2023-04-14T20:03:27.407Z,5.07
2023-04-14T20:05:55.962Z,5.03
2023-04-14T20:08:23.664Z,5.22
2023-04-14T20:10:55.032Z,5.57
2023-04-14T20:13:23.828Z,4.72
2023-04-14T20:15:54.121Z,5.28
2023-04-14T20:18:23.445Z,5.15
2023-04-14T20:20:51.014Z,4.40
2023-04-14T20:23:18.717Z,7.07
2023-04-14T20:25:48.446Z,5.28
2023-04-14T20:28:16.706Z,4.82
2023-04-14T20:30:45.180Z,5.18
2023-04-14T20:33:12.858Z,5.10
2023-04-14T20:35:43.503Z,4.97
2023-04-14T20:38:13.284Z,5.13
2023-04-14T20:40:42.529Z,4.88
2023-04-14T20:43:10.056Z,4.82
2023-04-14T20:45:43.314Z,5.15
2023-04-14T20:48:11.377Z,4.90
2023-04-14T20:50:38.866Z,4.78
2023-04-14T20:53:08.926Z,4.32
2023-04-14T20:55:36.982Z,4.40
2023-04-14T20:58:04.521Z,5.85
2023-04-14T21:00:34.240Z,4.40
2023-04-14T21:03:05.625Z,4.53
2023-04-14T21:05:33.414Z,4.50
2023-04-14T21:08:03.648Z,6.60
2023-04-14T21:10:32.816Z,4.72
2023-04-14T21:15:29.673Z,4.13
2023-04-14T21:15:55.844Z,4.28
2023-04-14T21:18:25.205Z,4.68
2023-04-14T21:20:52.944Z,4.68
2023-04-14T21:23:21.284Z,4.30
2023-04-14T21:25:50.271Z,4.25
2023-04-14T21:28:18.194Z,4.07
2023-04-14T21:30:45.702Z,4.20
2023-04-14T21:33:13.843Z,4.22
2023-04-14T21:35:41.608Z,4.78
2023-04-14T21:38:09.651Z,4.00
2023-04-14T21:40:37.328Z,3.40
2023-04-14T21:43:06.293Z,3.22
2023-04-14T21:45:33.876Z,3.22
2023-04-14T21:48:01.497Z,3.40
2023-04-14T21:50:30.276Z,3.15
2023-04-14T21:52:58.424Z,3.25
2023-04-14T21:55:26.047Z,3.70
2023-04-14T21:57:54.575Z,3.42
2023-04-14T22:00:24.131Z,3.38
2023-04-14T22:02:52.185Z,3.55
2023-04-14T22:05:19.984Z,3.70
2023-04-14T22:07:47.869Z,3.55
2023-04-14T22:10:15.939Z,3.72
2023-04-14T22:12:45.702Z,3.33
2023-04-14T22:15:14.672Z,3.55
2023-04-14T22:17:44.941Z,3.45
2023-04-14T22:20:13.026Z,3.08
2023-04-14T22:22:40.703Z,3.28
2023-04-14T22:25:09.839Z,3.30
2023-04-14T22:27:37.679Z,3.30
2023-04-14T22:30:06.179Z,2.90
2023-04-14T22:32:33.907Z,3.03
2023-04-14T22:35:03.735Z,4.03
2023-04-14T22:37:31.493Z,3.92
2023-04-14T22:40:02.111Z,4.18
2023-04-14T22:42:32.337Z,3.25
2023-04-14T22:45:01.488Z,3.20
2023-04-14T22:47:29.590Z,3.35
2023-04-14T22:49:57.488Z,3.45
2023-04-14T22:52:30.070Z,3.67
2023-04-14T22:54:57.995Z,3.53
2023-04-14T22:57:26.749Z,4.10
2023-04-14T22:59:54.445Z,4.03
2023-04-14T23:02:23.549Z,3.63
2023-04-14T23:04:52.327Z,3.58
2023-04-14T23:07:20.055Z,3.50
2023-04-14T23:09:49.925Z,3.28
2023-04-14T23:12:17.466Z,5.03
2023-04-14T23:14:45.573Z,3.28
2023-04-14T23:17:13.602Z,3.40
2023-04-14T23:19:42.233Z,3.45
2023-04-14T23:22:12.462Z,3.70
2023-04-14T23:24:40.199Z,3.67
2023-04-14T23:27:09.222Z,3.70
2023-04-14T23:29:37.657Z,4.05
2023-04-14T23:32:05.406Z,4.00
2023-04-14T23:34:34.203Z,3.47
2023-04-14T23:37:01.777Z,3.65
2023-04-14T23:39:30.465Z,3.33
2023-04-14T23:41:58.522Z,3.33
2023-04-14T23:44:28.400Z,4.07
2023-04-14T23:46:56.500Z,3.55
2023-04-14T23:49:34.181Z,3.65
2023-04-14T23:52:03.399Z,3.78
2023-04-14T23:54:31.814Z,3.70
2023-04-14T23:57:00.247Z,3.78
2023-04-14T23:59:29.409Z,3.53
